sim
Sign-in with your pilot id or email,
or register
Callsign
Passwort

Schedule Details

Flight Number: OEO3207
Departure: Dublin Airport (EIDW) at 14:30
Arrival: Munich Airport (EDDM) at 16:45

Weather Information
Getting current METAR information for EIDW 262200Z 32005KT CAVOK 02/00 Q1020 NOSIG
Getting current METAR information for EDDM 262150Z 23016KT 9999 OVC022 07/03 Q1002 NOSIG

Schedule Frequency

Route Map